Terminal Aerodrome Forecast
Issued by NWS Los Angeles, CA

Home | Current Version | Previous Version | Text Only | Print | Product List | Glossary On
Versions: 1 2 3 4 5 6 7 8 9 10 11 12 13 14 15 16 17 18 19 20 21 22 23 24 25 26 27
000
FTUS46 KLOX 290500
TAFSMX
TAF
KSMX 290528Z 2906/3006 VRB03KT P6SM BKN006
     FM290800 VRB03KT 4SM BR OVC004
     FM291100 VRB03KT 1SM BR OVC002
     FM291400 VRB03KT 4SM BR BKN007
     FM291700 28006KT P6SM SKC
     FM292000 30012KT P6SM SKC
     FM300400 VRB03KT P6SM SKC=

USA.gov is the U.S. government's official web portal to all federal, state and local government web resources and services.